sensor_id;sensor_type;location;lat;lon;timestamp;P1;durP1;ratioP1;P2;durP2;ratioP2
65289;SDS011;51893;59.754;10.110;2023-05-06T00:00:48;3.50;;;1.60;;
65289;SDS011;51893;59.754;10.110;2023-05-06T00:03:23;6.10;;;2.10;;
65289;SDS011;51893;59.754;10.110;2023-05-06T00:05:54;4.40;;;2.00;;
65289;SDS011;51893;59.754;10.110;2023-05-06T00:08:22;3.00;;;1.60;;
65289;SDS011;51893;59.754;10.110;2023-05-06T00:10:54;3.40;;;1.70;;
65289;SDS011;51893;59.754;10.110;2023-05-06T00:13:22;2.30;;;1.70;;
65289;SDS011;51893;59.754;10.110;2023-05-06T00:15:51;3.70;;;1.90;;
65289;SDS011;51893;59.754;10.110;2023-05-06T00:18:22;5.90;;;1.80;;
65289;SDS011;51893;59.754;10.110;2023-05-06T00:20:51;3.10;;;1.50;;
65289;SDS011;51893;59.754;10.110;2023-05-06T00:23:19;1.90;;;1.60;;
65289;SDS011;51893;59.754;10.110;2023-05-06T00:25:49;2.80;;;1.40;;
65289;SDS011;51893;59.754;10.110;2023-05-06T00:28:18;3.10;;;1.50;;
65289;SDS011;51893;59.754;10.110;2023-05-06T00:30:47;1.30;;;1.10;;
65289;SDS011;51893;59.754;10.110;2023-05-06T00:33:18;1.40;;;1.30;;
65289;SDS011;51893;59.754;10.110;2023-05-06T00:35:46;2.30;;;1.30;;
65289;SDS011;51893;59.754;10.110;2023-05-06T00:38:14;1.60;;;1.20;;
65289;SDS011;51893;59.754;10.110;2023-05-06T00:40:45;5.50;;;1.40;;
65289;SDS011;51893;59.754;10.110;2023-05-06T00:43:13;3.80;;;1.70;;
65289;SDS011;51893;59.754;10.110;2023-05-06T00:45:49;1.90;;;1.40;;
65289;SDS011;51893;59.754;10.110;2023-05-06T00:48:19;2.00;;;1.30;;
65289;SDS011;51893;59.754;10.110;2023-05-06T00:50:50;2.90;;;1.60;;
65289;SDS011;51893;59.754;10.110;2023-05-06T00:53:20;2.90;;;1.60;;
65289;SDS011;51893;59.754;10.110;2023-05-06T00:55:51;2.90;;;1.40;;
65289;SDS011;51893;59.754;10.110;2023-05-06T00:58:19;3.00;;;1.80;;
65289;SDS011;51893;59.754;10.110;2023-05-06T01:00:48;4.50;;;1.40;;
65289;SDS011;51893;59.754;10.110;2023-05-06T01:03:21;3.20;;;1.30;;
65289;SDS011;51893;59.754;10.110;2023-05-06T01:06:15;4.70;;;1.30;;
65289;SDS011;51893;59.754;10.110;2023-05-06T01:09:30;2.50;;;1.50;;
65289;SDS011;51893;59.754;10.110;2023-05-06T01:12:23;1.30;;;1.10;;
65289;SDS011;51893;59.754;10.110;2023-05-06T01:15:01;1.20;;;1.10;;
65289;SDS011;51893;59.754;10.110;2023-05-06T01:17:42;1.00;;;0.90;;
65289;SDS011;51893;59.754;10.110;2023-05-06T01:20:17;2.10;;;0.90;;
65289;SDS011;51893;59.754;10.110;2023-05-06T01:22:48;2.20;;;1.00;;
65289;SDS011;51893;59.754;10.110;2023-05-06T01:25:22;3.70;;;1.10;;
65289;SDS011;51893;59.754;10.110;2023-05-06T01:27:51;1.10;;;1.00;;
65289;SDS011;51893;59.754;10.110;2023-05-06T01:30:23;3.70;;;1.20;;
65289;SDS011;51893;59.754;10.110;2023-05-06T01:36:47;1.70;;;1.30;;
65289;SDS011;51893;59.754;10.110;2023-05-06T01:39:24;2.50;;;1.10;;
65289;SDS011;51893;59.754;10.110;2023-05-06T01:41:56;1.40;;;1.30;;
65289;SDS011;51893;59.754;10.110;2023-05-06T01:44:32;2.00;;;1.20;;
65289;SDS011;51893;59.754;10.110;2023-05-06T01:47:04;4.70;;;1.40;;
65289;SDS011;51893;59.754;10.110;2023-05-06T01:49:36;2.30;;;1.20;;
65289;SDS011;51893;59.754;10.110;2023-05-06T01:52:04;1.70;;;1.60;;
65289;SDS011;51893;59.754;10.110;2023-05-06T01:54:36;1.40;;;1.30;;
65289;SDS011;51893;59.754;10.110;2023-05-06T01:57:05;1.60;;;1.40;;
65289;SDS011;51893;59.754;10.110;2023-05-06T01:59:36;1.50;;;1.20;;
65289;SDS011;51893;59.754;10.110;2023-05-06T02:02:04;6.60;;;1.30;;
65289;SDS011;51893;59.754;10.110;2023-05-06T02:04:34;4.70;;;1.30;;
65289;SDS011;51893;59.754;10.110;2023-05-06T02:07:03;3.60;;;1.30;;
65289;SDS011;51893;59.754;10.110;2023-05-06T02:09:31;2.30;;;1.20;;
65289;SDS011;51893;59.754;10.110;2023-05-06T02:12:01;4.30;;;1.40;;
65289;SDS011;51893;59.754;10.110;2023-05-06T02:14:29;2.00;;;1.20;;
65289;SDS011;51893;59.754;10.110;2023-05-06T02:17:04;17.30;;;1.60;;
65289;SDS011;51893;59.754;10.110;2023-05-06T02:19:35;1.50;;;1.40;;
65289;SDS011;51893;59.754;10.110;2023-05-06T02:22:06;6.20;;;1.20;;
65289;SDS011;51893;59.754;10.110;2023-05-06T02:24:34;5.60;;;1.40;;
65289;SDS011;51893;59.754;10.110;2023-05-06T02:27:05;7.60;;;1.70;;
65289;SDS011;51893;59.754;10.110;2023-05-06T02:29:33;3.10;;;1.30;;
65289;SDS011;51893;59.754;10.110;2023-05-06T02:32:03;2.70;;;1.40;;
65289;SDS011;51893;59.754;10.110;2023-05-06T02:34:33;2.80;;;1.20;;
65289;SDS011;51893;59.754;10.110;2023-05-06T02:37:01;1.20;;;1.10;;
65289;SDS011;51893;59.754;10.110;2023-05-06T02:39:31;1.20;;;1.10;;
65289;SDS011;51893;59.754;10.110;2023-05-06T02:42:00;2.50;;;1.20;;
65289;SDS011;51893;59.754;10.110;2023-05-06T02:44:30;1.40;;;1.10;;
65289;SDS011;51893;59.754;10.110;2023-05-06T02:47:01;1.80;;;1.30;;
65289;SDS011;51893;59.754;10.110;2023-05-06T02:49:29;3.10;;;1.10;;
65289;SDS011;51893;59.754;10.110;2023-05-06T02:51:59;1.80;;;1.20;;
65289;SDS011;51893;59.754;10.110;2023-05-06T02:54:27;1.30;;;1.20;;
65289;SDS011;51893;59.754;10.110;2023-05-06T02:56:56;1.40;;;1.30;;
65289;SDS011;51893;59.754;10.110;2023-05-06T02:59:25;1.60;;;1.30;;
65289;SDS011;51893;59.754;10.110;2023-05-06T03:01:54;2.70;;;1.50;;
65289;SDS011;51893;59.754;10.110;2023-05-06T03:04:24;1.90;;;1.10;;
65289;SDS011;51893;59.754;10.110;2023-05-06T03:06:53;1.50;;;1.10;;
65289;SDS011;51893;59.754;10.110;2023-05-06T03:09:23;1.50;;;1.00;;
65289;SDS011;51893;59.754;10.110;2023-05-06T03:11:55;1.30;;;1.20;;
65289;SDS011;51893;59.754;10.110;2023-05-06T03:14:27;1.20;;;1.10;;
65289;SDS011;51893;59.754;10.110;2023-05-06T03:16:56;1.60;;;1.40;;
65289;SDS011;51893;59.754;10.110;2023-05-06T03:19:28;3.40;;;1.80;;
65289;SDS011;51893;59.754;10.110;2023-05-06T03:21:56;3.20;;;1.40;;
65289;SDS011;51893;59.754;10.110;2023-05-06T03:24:28;4.80;;;1.50;;
65289;SDS011;51893;59.754;10.110;2023-05-06T03:26:56;6.10;;;1.70;;
65289;SDS011;51893;59.754;10.110;2023-05-06T03:29:25;6.30;;;1.60;;
65289;SDS011;51893;59.754;10.110;2023-05-06T03:31:56;3.40;;;1.60;;
65289;SDS011;51893;59.754;10.110;2023-05-06T03:34:26;2.80;;;1.60;;
65289;SDS011;51893;59.754;10.110;2023-05-06T03:36:57;2.10;;;1.60;;
65289;SDS011;51893;59.754;10.110;2023-05-06T03:39:30;2.90;;;1.70;;
65289;SDS011;51893;59.754;10.110;2023-05-06T03:42:02;1.90;;;1.70;;
65289;SDS011;51893;59.754;10.110;2023-05-06T03:44:30;1.40;;;1.30;;
65289;SDS011;51893;59.754;10.110;2023-05-06T03:46:58;2.00;;;1.70;;
65289;SDS011;51893;59.754;10.110;2023-05-06T03:49:26;3.20;;;1.60;;
65289;SDS011;51893;59.754;10.110;2023-05-06T03:51:54;3.00;;;1.70;;
65289;SDS011;51893;59.754;10.110;2023-05-06T03:54:22;3.00;;;1.40;;
65289;SDS011;51893;59.754;10.110;2023-05-06T03:56:53;2.50;;;1.30;;
65289;SDS011;51893;59.754;10.110;2023-05-06T03:59:21;5.60;;;1.50;;
65289;SDS011;51893;59.754;10.110;2023-05-06T04:01:52;4.80;;;1.40;;
65289;SDS011;51893;59.754;10.110;2023-05-06T04:04:20;2.30;;;1.40;;
65289;SDS011;51893;59.754;10.110;2023-05-06T04:06:50;4.30;;;1.60;;
65289;SDS011;51893;59.754;10.110;2023-05-06T04:09:18;1.50;;;1.40;;
65289;SDS011;51893;59.754;10.110;2023-05-06T04:11:47;2.10;;;1.70;;
65289;SDS011;51893;59.754;10.110;2023-05-06T04:14:24;4.00;;;1.50;;
65289;SDS011;51893;59.754;10.110;2023-05-06T04:16:52;3.70;;;1.60;;
65289;SDS011;51893;59.754;10.110;2023-05-06T04:19:24;2.30;;;1.60;;
65289;SDS011;51893;59.754;10.110;2023-05-06T04:21:53;9.00;;;1.80;;
65289;SDS011;51893;59.754;10.110;2023-05-06T04:24:22;2.80;;;1.90;;
65289;SDS011;51893;59.754;10.110;2023-05-06T04:26:51;3.30;;;1.50;;
65289;SDS011;51893;59.754;10.110;2023-05-06T04:29:19;3.20;;;1.80;;
65289;SDS011;51893;59.754;10.110;2023-05-06T04:31:52;2.00;;;1.60;;
65289;SDS011;51893;59.754;10.110;2023-05-06T04:34:23;1.70;;;1.60;;
65289;SDS011;51893;59.754;10.110;2023-05-06T04:36:54;1.80;;;1.70;;
65289;SDS011;51893;59.754;10.110;2023-05-06T04:39:23;3.10;;;1.90;;
65289;SDS011;51893;59.754;10.110;2023-05-06T04:41:55;3.90;;;2.00;;
65289;SDS011;51893;59.754;10.110;2023-05-06T04:44:24;4.90;;;2.00;;
65289;SDS011;51893;59.754;10.110;2023-05-06T04:46:52;4.80;;;2.00;;
65289;SDS011;51893;59.754;10.110;2023-05-06T04:49:22;3.70;;;2.00;;
65289;SDS011;51893;59.754;10.110;2023-05-06T04:51:50;2.10;;;1.90;;
65289;SDS011;51893;59.754;10.110;2023-05-06T04:54:18;2.90;;;2.00;;
65289;SDS011;51893;59.754;10.110;2023-05-06T04:56:49;3.40;;;1.90;;
65289;SDS011;51893;59.754;10.110;2023-05-06T04:59:17;1.80;;;1.70;;
65289;SDS011;51893;59.754;10.110;2023-05-06T05:01:48;1.70;;;1.30;;
65289;SDS011;51893;59.754;10.110;2023-05-06T05:04:16;3.70;;;2.00;;
65289;SDS011;51893;59.754;10.110;2023-05-06T05:06:47;6.10;;;1.70;;
65289;SDS011;51893;59.754;10.110;2023-05-06T05:09:16;2.20;;;1.50;;
65289;SDS011;51893;59.754;10.110;2023-05-06T05:11:48;1.80;;;1.70;;
65289;SDS011;51893;59.754;10.110;2023-05-06T05:14:16;2.00;;;1.80;;
65289;SDS011;51893;59.754;10.110;2023-05-06T05:16:48;3.60;;;1.60;;
65289;SDS011;51893;59.754;10.110;2023-05-06T05:19:16;3.50;;;2.20;;
65289;SDS011;51893;59.754;10.110;2023-05-06T05:21:45;6.00;;;1.70;;
65289;SDS011;51893;59.754;10.110;2023-05-06T05:24:15;3.00;;;2.00;;
65289;SDS011;51893;59.754;10.110;2023-05-06T05:26:47;4.00;;;2.10;;
65289;SDS011;51893;59.754;10.110;2023-05-06T05:29:18;2.20;;;1.70;;
65289;SDS011;51893;59.754;10.110;2023-05-06T05:31:46;2.60;;;2.00;;
65289;SDS011;51893;59.754;10.110;2023-05-06T05:34:15;2.10;;;1.90;;
65289;SDS011;51893;59.754;10.110;2023-05-06T05:36:47;2.10;;;1.90;;
65289;SDS011;51893;59.754;10.110;2023-05-06T05:39:17;2.30;;;2.10;;
65289;SDS011;51893;59.754;10.110;2023-05-06T05:41:47;3.20;;;2.10;;
65289;SDS011;51893;59.754;10.110;2023-05-06T05:44:19;3.70;;;1.90;;
65289;SDS011;51893;59.754;10.110;2023-05-06T05:46:51;2.20;;;1.80;;
65289;SDS011;51893;59.754;10.110;2023-05-06T05:49:20;1.90;;;1.70;;
65289;SDS011;51893;59.754;10.110;2023-05-06T05:51:53;2.40;;;2.10;;
65289;SDS011;51893;59.754;10.110;2023-05-06T05:54:21;4.80;;;2.10;;
65289;SDS011;51893;59.754;10.110;2023-05-06T05:56:49;2.30;;;1.70;;
65289;SDS011;51893;59.754;10.110;2023-05-06T05:59:19;2.60;;;1.70;;
65289;SDS011;51893;59.754;10.110;2023-05-06T06:01:47;1.90;;;1.40;;
65289;SDS011;51893;59.754;10.110;2023-05-06T06:04:16;4.80;;;1.90;;
65289;SDS011;51893;59.754;10.110;2023-05-06T06:06:46;3.60;;;1.70;;
65289;SDS011;51893;59.754;10.110;2023-05-06T06:09:14;5.90;;;1.80;;
65289;SDS011;51893;59.754;10.110;2023-05-06T06:11:46;1.60;;;1.50;;
65289;SDS011;51893;59.754;10.110;2023-05-06T06:14:14;2.40;;;1.80;;
65289;SDS011;51893;59.754;10.110;2023-05-06T06:16:48;2.00;;;1.80;;
65289;SDS011;51893;59.754;10.110;2023-05-06T06:19:16;4.90;;;1.60;;
65289;SDS011;51893;59.754;10.110;2023-05-06T06:21:47;5.60;;;1.50;;
65289;SDS011;51893;59.754;10.110;2023-05-06T06:24:18;1.80;;;1.60;;
65289;SDS011;51893;59.754;10.110;2023-05-06T06:26:46;2.40;;;1.50;;
65289;SDS011;51893;59.754;10.110;2023-05-06T06:29:15;1.60;;;1.50;;
65289;SDS011;51893;59.754;10.110;2023-05-06T06:31:46;1.50;;;1.40;;
65289;SDS011;51893;59.754;10.110;2023-05-06T06:34:18;4.80;;;2.20;;
65289;SDS011;51893;59.754;10.110;2023-05-06T06:36:46;2.10;;;1.70;;
65289;SDS011;51893;59.754;10.110;2023-05-06T06:39:14;2.90;;;1.40;;
65289;SDS011;51893;59.754;10.110;2023-05-06T06:41:44;5.20;;;1.60;;
65289;SDS011;51893;59.754;10.110;2023-05-06T06:44:12;3.30;;;1.40;;
65289;SDS011;51893;59.754;10.110;2023-05-06T06:46:40;2.90;;;1.40;;
65289;SDS011;51893;59.754;10.110;2023-05-06T06:49:09;3.70;;;1.40;;
65289;SDS011;51893;59.754;10.110;2023-05-06T06:51:38;0.70;;;0.70;;
65289;SDS011;51893;59.754;10.110;2023-05-06T06:54:06;5.60;;;0.90;;
65289;SDS011;51893;59.754;10.110;2023-05-06T06:56:34;4.30;;;1.10;;
65289;SDS011;51893;59.754;10.110;2023-05-06T06:59:02;0.60;;;0.60;;
65289;SDS011;51893;59.754;10.110;2023-05-06T07:01:35;1.80;;;0.90;;
65289;SDS011;51893;59.754;10.110;2023-05-06T07:06:34;5.20;;;1.00;;
65289;SDS011;51893;59.754;10.110;2023-05-06T07:09:04;1.70;;;1.00;;
65289;SDS011;51893;59.754;10.110;2023-05-06T07:11:34;0.70;;;0.70;;
65289;SDS011;51893;59.754;10.110;2023-05-06T07:14:04;0.80;;;0.80;;
65289;SDS011;51893;59.754;10.110;2023-05-06T07:16:33;1.80;;;0.80;;
65289;SDS011;51893;59.754;10.110;2023-05-06T07:19:01;1.10;;;1.00;;
65289;SDS011;51893;59.754;10.110;2023-05-06T07:21:30;2.70;;;0.90;;
65289;SDS011;51893;59.754;10.110;2023-05-06T07:24:01;1.00;;;0.90;;
65289;SDS011;51893;59.754;10.110;2023-05-06T07:26:35;0.80;;;0.80;;
65289;SDS011;51893;59.754;10.110;2023-05-06T07:29:04;10.60;;;1.40;;
65289;SDS011;51893;59.754;10.110;2023-05-06T07:31:32;0.90;;;0.90;;
65289;SDS011;51893;59.754;10.110;2023-05-06T07:34:05;2.10;;;1.50;;
65289;SDS011;51893;59.754;10.110;2023-05-06T07:36:34;0.80;;;0.80;;
65289;SDS011;51893;59.754;10.110;2023-05-06T07:39:10;0.80;;;0.70;;
65289;SDS011;51893;59.754;10.110;2023-05-06T07:41:40;1.90;;;0.90;;
65289;SDS011;51893;59.754;10.110;2023-05-06T07:44:09;0.80;;;0.80;;
65289;SDS011;51893;59.754;10.110;2023-05-06T07:46:40;106.90;;;4.10;;
65289;SDS011;51893;59.754;10.110;2023-05-06T07:49:09;8.70;;;1.30;;
65289;SDS011;51893;59.754;10.110;2023-05-06T07:51:37;0.70;;;0.70;;
65289;SDS011;51893;59.754;10.110;2023-05-06T07:54:05;2.50;;;0.80;;
65289;SDS011;51893;59.754;10.110;2023-05-06T07:56:34;2.90;;;1.00;;
65289;SDS011;51893;59.754;10.110;2023-05-06T07:59:02;2.70;;;0.80;;
65289;SDS011;51893;59.754;10.110;2023-05-06T08:01:32;8.70;;;1.30;;
65289;SDS011;51893;59.754;10.110;2023-05-06T08:04:01;0.80;;;0.80;;
65289;SDS011;51893;59.754;10.110;2023-05-06T08:06:29;0.70;;;0.70;;
65289;SDS011;51893;59.754;10.110;2023-05-06T08:08:59;3.10;;;0.90;;
65289;SDS011;51893;59.754;10.110;2023-05-06T08:11:28;0.90;;;0.90;;
65289;SDS011;51893;59.754;10.110;2023-05-06T08:13:57;3.00;;;1.00;;
65289;SDS011;51893;59.754;10.110;2023-05-06T08:16:26;1.00;;;0.70;;
65289;SDS011;51893;59.754;10.110;2023-05-06T08:18:56;2.70;;;1.00;;
65289;SDS011;51893;59.754;10.110;2023-05-06T08:21:25;20.00;;;1.50;;
65289;SDS011;51893;59.754;10.110;2023-05-06T08:23:53;4.60;;;1.30;;
65289;SDS011;51893;59.754;10.110;2023-05-06T08:26:22;5.80;;;1.20;;
65289;SDS011;51893;59.754;10.110;2023-05-06T08:28:53;3.40;;;0.80;;
65289;SDS011;51893;59.754;10.110;2023-05-06T08:31:24;1.20;;;0.80;;
65289;SDS011;51893;59.754;10.110;2023-05-06T08:33:53;0.60;;;0.60;;
65289;SDS011;51893;59.754;10.110;2023-05-06T08:36:23;1.00;;;0.70;;
65289;SDS011;51893;59.754;10.110;2023-05-06T08:38:52;11.40;;;1.40;;
65289;SDS011;51893;59.754;10.110;2023-05-06T08:41:20;37.30;;;2.80;;
65289;SDS011;51893;59.754;10.110;2023-05-06T08:43:52;1.40;;;0.80;;
65289;SDS011;51893;59.754;10.110;2023-05-06T08:46:25;18.80;;;1.40;;
65289;SDS011;51893;59.754;10.110;2023-05-06T08:48:54;1.70;;;0.90;;
65289;SDS011;51893;59.754;10.110;2023-05-06T08:51:27;4.90;;;0.80;;
65289;SDS011;51893;59.754;10.110;2023-05-06T08:54:00;0.70;;;0.70;;
65289;SDS011;51893;59.754;10.110;2023-05-06T08:56:32;1.50;;;0.70;;
65289;SDS011;51893;59.754;10.110;2023-05-06T08:59:01;3.40;;;0.90;;
65289;SDS011;51893;59.754;10.110;2023-05-06T09:01:29;6.20;;;0.90;;
65289;SDS011;51893;59.754;10.110;2023-05-06T09:04:00;2.30;;;0.90;;
65289;SDS011;51893;59.754;10.110;2023-05-06T09:06:30;4.50;;;0.90;;
65289;SDS011;51893;59.754;10.110;2023-05-06T09:09:01;0.90;;;0.70;;
65289;SDS011;51893;59.754;10.110;2023-05-06T09:11:29;1.20;;;0.70;;
65289;SDS011;51893;59.754;10.110;2023-05-06T09:14:14;4.40;;;0.80;;
65289;SDS011;51893;59.754;10.110;2023-05-06T09:16:47;4.10;;;0.80;;
65289;SDS011;51893;59.754;10.110;2023-05-06T09:19:19;0.60;;;0.60;;
65289;SDS011;51893;59.754;10.110;2023-05-06T09:21:50;12.90;;;1.10;;
65289;SDS011;51893;59.754;10.110;2023-05-06T09:24:19;1.20;;;0.70;;
65289;SDS011;51893;59.754;10.110;2023-05-06T09:26:51;0.70;;;0.70;;
65289;SDS011;51893;59.754;10.110;2023-05-06T09:29:22;0.80;;;0.80;;
65289;SDS011;51893;59.754;10.110;2023-05-06T09:31:54;6.60;;;0.70;;
65289;SDS011;51893;59.754;10.110;2023-05-06T09:34:26;5.30;;;0.90;;
65289;SDS011;51893;59.754;10.110;2023-05-06T09:36:54;0.70;;;0.70;;
65289;SDS011;51893;59.754;10.110;2023-05-06T09:39:25;3.90;;;0.90;;
65289;SDS011;51893;59.754;10.110;2023-05-06T09:41:57;6.70;;;1.00;;
65289;SDS011;51893;59.754;10.110;2023-05-06T09:44:26;0.70;;;0.70;;
65289;SDS011;51893;59.754;10.110;2023-05-06T09:46:59;18.20;;;1.40;;
65289;SDS011;51893;59.754;10.110;2023-05-06T09:49:31;1.90;;;0.90;;
65289;SDS011;51893;59.754;10.110;2023-05-06T09:52:00;8.40;;;1.30;;
65289;SDS011;51893;59.754;10.110;2023-05-06T09:54:32;4.50;;;0.80;;
65289;SDS011;51893;59.754;10.110;2023-05-06T09:57:03;0.80;;;0.60;;
65289;SDS011;51893;59.754;10.110;2023-05-06T09:59:32;2.60;;;1.00;;
65289;SDS011;51893;59.754;10.110;2023-05-06T10:02:01;2.30;;;0.60;;
65289;SDS011;51893;59.754;10.110;2023-05-06T10:04:32;7.70;;;1.10;;
65289;SDS011;51893;59.754;10.110;2023-05-06T10:07:04;2.30;;;0.80;;
65289;SDS011;51893;59.754;10.110;2023-05-06T10:09:39;5.10;;;0.80;;
65289;SDS011;51893;59.754;10.110;2023-05-06T10:12:10;10.50;;;1.60;;
65289;SDS011;51893;59.754;10.110;2023-05-06T10:14:42;7.00;;;0.70;;
65289;SDS011;51893;59.754;10.110;2023-05-06T10:17:11;6.20;;;1.20;;
65289;SDS011;51893;59.754;10.110;2023-05-06T10:19:44;0.50;;;0.50;;
65289;SDS011;51893;59.754;10.110;2023-05-06T10:22:27;0.50;;;0.50;;
65289;SDS011;51893;59.754;10.110;2023-05-06T10:27:58;18.20;;;1.20;;
65289;SDS011;51893;59.754;10.110;2023-05-06T10:30:33;3.10;;;0.70;;
65289;SDS011;51893;59.754;10.110;2023-05-06T10:33:09;2.30;;;0.70;;
65289;SDS011;51893;59.754;10.110;2023-05-06T10:38:28;3.60;;;0.80;;
65289;SDS011;51893;59.754;10.110;2023-05-06T10:41:07;0.90;;;0.70;;
65289;SDS011;51893;59.754;10.110;2023-05-06T10:43:42;0.90;;;0.80;;
65289;SDS011;51893;59.754;10.110;2023-05-06T10:46:12;0.60;;;0.60;;
65289;SDS011;51893;59.754;10.110;2023-05-06T10:51:36;1.70;;;0.70;;
65289;SDS011;51893;59.754;10.110;2023-05-06T10:54:24;0.80;;;0.60;;
65289;SDS011;51893;59.754;10.110;2023-05-06T10:59:22;1.30;;;0.90;;
65289;SDS011;51893;59.754;10.110;2023-05-06T11:02:08;1.00;;;0.50;;
65289;SDS011;51893;59.754;10.110;2023-05-06T11:04:38;1.50;;;0.70;;
65289;SDS011;51893;59.754;10.110;2023-05-06T11:07:11;0.60;;;0.60;;
65289;SDS011;51893;59.754;10.110;2023-05-06T11:09:59;2.40;;;0.80;;
65289;SDS011;51893;59.754;10.110;2023-05-06T11:12:53;2.20;;;0.50;;
65289;SDS011;51893;59.754;10.110;2023-05-06T11:15:24;0.40;;;0.40;;
65289;SDS011;51893;59.754;10.110;2023-05-06T11:17:54;1.90;;;0.60;;
65289;SDS011;51893;59.754;10.110;2023-05-06T11:20:31;0.50;;;0.50;;
65289;SDS011;51893;59.754;10.110;2023-05-06T11:23:13;0.60;;;0.60;;
65289;SDS011;51893;59.754;10.110;2023-05-06T11:25:42;1.70;;;0.40;;
65289;SDS011;51893;59.754;10.110;2023-05-06T11:28:13;1.20;;;0.70;;
65289;SDS011;51893;59.754;10.110;2023-05-06T11:30:53;0.80;;;0.80;;
65289;SDS011;51893;59.754;10.110;2023-05-06T11:33:26;1.10;;;0.50;;
65289;SDS011;51893;59.754;10.110;2023-05-06T11:36:01;2.60;;;0.60;;
65289;SDS011;51893;59.754;10.110;2023-05-06T11:38:45;1.10;;;0.70;;
65289;SDS011;51893;59.754;10.110;2023-05-06T11:41:17;1.60;;;0.50;;
65289;SDS011;51893;59.754;10.110;2023-05-06T11:43:51;0.60;;;0.60;;
65289;SDS011;51893;59.754;10.110;2023-05-06T11:46:22;1.70;;;0.60;;
65289;SDS011;51893;59.754;10.110;2023-05-06T11:48:53;1.20;;;0.60;;
65289;SDS011;51893;59.754;10.110;2023-05-06T11:51:22;5.10;;;0.70;;
65289;SDS011;51893;59.754;10.110;2023-05-06T11:54:09;5.90;;;0.90;;
65289;SDS011;51893;59.754;10.110;2023-05-06T11:56:48;1.10;;;0.70;;
65289;SDS011;51893;59.754;10.110;2023-05-06T11:59:35;2.00;;;0.60;;
65289;SDS011;51893;59.754;10.110;2023-05-06T12:02:07;0.60;;;0.60;;
65289;SDS011;51893;59.754;10.110;2023-05-06T12:04:45;2.80;;;0.60;;
65289;SDS011;51893;59.754;10.110;2023-05-06T12:07:17;7.70;;;0.80;;
65289;SDS011;51893;59.754;10.110;2023-05-06T12:09:48;0.90;;;0.80;;
65289;SDS011;51893;59.754;10.110;2023-05-06T12:12:20;2.40;;;0.70;;
65289;SDS011;51893;59.754;10.110;2023-05-06T12:14:51;0.80;;;0.50;;
65289;SDS011;51893;59.754;10.110;2023-05-06T12:17:22;0.60;;;0.60;;
65289;SDS011;51893;59.754;10.110;2023-05-06T12:19:52;2.70;;;0.70;;
65289;SDS011;51893;59.754;10.110;2023-05-06T12:25:13;0.60;;;0.60;;
65289;SDS011;51893;59.754;10.110;2023-05-06T12:27:42;0.60;;;0.60;;
65289;SDS011;51893;59.754;10.110;2023-05-06T12:30:12;0.80;;;0.60;;
65289;SDS011;51893;59.754;10.110;2023-05-06T12:33:07;0.50;;;0.50;;
65289;SDS011;51893;59.754;10.110;2023-05-06T12:35:38;1.10;;;0.70;;
65289;SDS011;51893;59.754;10.110;2023-05-06T12:38:13;0.40;;;0.40;;
65289;SDS011;51893;59.754;10.110;2023-05-06T12:40:54;6.80;;;0.60;;
65289;SDS011;51893;59.754;10.110;2023-05-06T12:43:28;1.20;;;0.50;;
65289;SDS011;51893;59.754;10.110;2023-05-06T12:46:07;3.80;;;0.70;;
65289;SDS011;51893;59.754;10.110;2023-05-06T12:48:36;1.60;;;0.90;;
65289;SDS011;51893;59.754;10.110;2023-05-06T12:51:18;0.70;;;0.70;;
65289;SDS011;51893;59.754;10.110;2023-05-06T12:53:52;0.60;;;0.60;;
65289;SDS011;51893;59.754;10.110;2023-05-06T12:56:21;0.70;;;0.70;;
65289;SDS011;51893;59.754;10.110;2023-05-06T12:59:16;3.90;;;0.70;;
65289;SDS011;51893;59.754;10.110;2023-05-06T13:01:45;0.60;;;0.60;;
65289;SDS011;51893;59.754;10.110;2023-05-06T13:04:14;1.50;;;0.80;;
65289;SDS011;51893;59.754;10.110;2023-05-06T13:06:43;3.00;;;0.60;;
65289;SDS011;51893;59.754;10.110;2023-05-06T13:09:22;0.60;;;0.60;;
65289;SDS011;51893;59.754;10.110;2023-05-06T13:11:52;1.30;;;0.80;;
65289;SDS011;51893;59.754;10.110;2023-05-06T13:14:27;1.10;;;0.50;;
65289;SDS011;51893;59.754;10.110;2023-05-06T13:17:00;0.40;;;0.40;;
65289;SDS011;51893;59.754;10.110;2023-05-06T13:19:32;3.90;;;0.70;;
65289;SDS011;51893;59.754;10.110;2023-05-06T13:22:03;0.90;;;0.50;;
65289;SDS011;51893;59.754;10.110;2023-05-06T13:24:39;0.60;;;0.60;;
65289;SDS011;51893;59.754;10.110;2023-05-06T13:27:12;0.80;;;0.50;;
65289;SDS011;51893;59.754;10.110;2023-05-06T13:29:42;0.40;;;0.40;;
65289;SDS011;51893;59.754;10.110;2023-05-06T13:32:12;2.60;;;0.70;;
65289;SDS011;51893;59.754;10.110;2023-05-06T13:34:45;0.50;;;0.50;;
65289;SDS011;51893;59.754;10.110;2023-05-06T13:37:15;0.90;;;0.60;;
65289;SDS011;51893;59.754;10.110;2023-05-06T13:39:49;0.60;;;0.60;;
65289;SDS011;51893;59.754;10.110;2023-05-06T13:42:17;0.90;;;0.70;;
65289;SDS011;51893;59.754;10.110;2023-05-06T13:44:48;1.10;;;0.40;;
65289;SDS011;51893;59.754;10.110;2023-05-06T13:47:16;0.80;;;0.50;;
65289;SDS011;51893;59.754;10.110;2023-05-06T13:49:47;0.70;;;0.50;;
65289;SDS011;51893;59.754;10.110;2023-05-06T13:52:17;0.60;;;0.60;;
65289;SDS011;51893;59.754;10.110;2023-05-06T13:54:49;0.70;;;0.60;;
65289;SDS011;51893;59.754;10.110;2023-05-06T13:57:25;0.90;;;0.60;;
65289;SDS011;51893;59.754;10.110;2023-05-06T13:59:53;0.50;;;0.50;;
65289;SDS011;51893;59.754;10.110;2023-05-06T14:02:22;1.50;;;0.90;;
65289;SDS011;51893;59.754;10.110;2023-05-06T14:04:53;5.70;;;0.80;;
65289;SDS011;51893;59.754;10.110;2023-05-06T14:07:25;8.40;;;0.90;;
65289;SDS011;51893;59.754;10.110;2023-05-06T14:09:54;5.10;;;0.70;;
65289;SDS011;51893;59.754;10.110;2023-05-06T14:12:22;0.70;;;0.60;;
65289;SDS011;51893;59.754;10.110;2023-05-06T14:14:51;0.90;;;0.50;;
65289;SDS011;51893;59.754;10.110;2023-05-06T14:17:22;0.50;;;0.50;;
65289;SDS011;51893;59.754;10.110;2023-05-06T14:19:52;0.70;;;0.70;;
65289;SDS011;51893;59.754;10.110;2023-05-06T14:22:20;0.80;;;0.50;;
65289;SDS011;51893;59.754;10.110;2023-05-06T14:24:51;1.10;;;0.60;;
65289;SDS011;51893;59.754;10.110;2023-05-06T14:27:20;0.70;;;0.70;;
65289;SDS011;51893;59.754;10.110;2023-05-06T14:29:48;1.00;;;0.70;;
65289;SDS011;51893;59.754;10.110;2023-05-06T14:32:18;0.90;;;0.50;;
65289;SDS011;51893;59.754;10.110;2023-05-06T14:34:48;1.30;;;0.90;;
65289;SDS011;51893;59.754;10.110;2023-05-06T14:37:18;0.90;;;0.60;;
65289;SDS011;51893;59.754;10.110;2023-05-06T14:39:50;1.30;;;0.70;;
65289;SDS011;51893;59.754;10.110;2023-05-06T14:42:18;1.60;;;0.60;;
65289;SDS011;51893;59.754;10.110;2023-05-06T14:44:47;1.60;;;0.70;;
65289;SDS011;51893;59.754;10.110;2023-05-06T14:47:19;0.50;;;0.50;;
65289;SDS011;51893;59.754;10.110;2023-05-06T14:49:50;1.60;;;0.70;;
65289;SDS011;51893;59.754;10.110;2023-05-06T14:52:20;0.80;;;0.80;;
65289;SDS011;51893;59.754;10.110;2023-05-06T14:54:57;0.90;;;0.70;;
65289;SDS011;51893;59.754;10.110;2023-05-06T14:57:27;1.00;;;0.70;;
65289;SDS011;51893;59.754;10.110;2023-05-06T14:59:57;0.80;;;0.70;;
65289;SDS011;51893;59.754;10.110;2023-05-06T15:02:27;1.30;;;0.70;;
65289;SDS011;51893;59.754;10.110;2023-05-06T15:04:57;1.20;;;0.60;;
65289;SDS011;51893;59.754;10.110;2023-05-06T15:07:29;0.70;;;0.60;;
65289;SDS011;51893;59.754;10.110;2023-05-06T15:10:00;2.10;;;0.70;;
65289;SDS011;51893;59.754;10.110;2023-05-06T15:12:32;1.00;;;0.50;;
65289;SDS011;51893;59.754;10.110;2023-05-06T15:15:03;0.70;;;0.60;;
65289;SDS011;51893;59.754;10.110;2023-05-06T15:17:52;0.70;;;0.70;;